Time;durP1;ratioP1;P1;durP2;ratioP2;P2;SDS_P1;SDS_P2;PMS_P1;PMS_P2;Temp;Humidity;BMP_temperature;BMP_pressure;BME280_temperature;BME280_humidity;BME280_pressure;Samples;Min_cycle;Max_cycle;Signal;HPM_P1;HPM_P2
2021/10/28 00:14:34;;;;;;;10.93;7.43;;;10.90;99.90;;;;;;5090476;28;20208;-69
2021/10/28 00:17:09;;;;;;;9.07;7.90;;;10.90;99.90;;;;;;5090299;28;20625;-70
2021/10/28 00:19:36;;;;;;;9.15;7.47;;;10.80;99.90;;;;;;5090608;28;20205;-69
2021/10/28 00:22:04;;;;;;;8.47;6.97;;;10.80;99.90;;;;;;5090250;28;20263;-71
2021/10/28 00:24:32;;;;;;;8.33;6.57;;;10.80;99.90;;;;;;5090574;28;20209;-72
2021/10/28 00:26:59;;;;;;;7.23;5.87;;;10.80;99.90;;;;;;5090288;28;20213;-71
2021/10/28 00:29:26;;;;;;;9.90;6.70;;;10.80;99.90;;;;;;5090541;28;20237;-71
2021/10/28 00:31:56;;;;;;;9.67;7.53;;;10.70;99.90;;;;;;5090710;28;20209;-71
2021/10/28 00:34:26;;;;;;;10.17;7.33;;;10.70;99.90;;;;;;5090658;28;20298;-71
2021/10/28 00:36:53;;;;;;;9.17;7.33;;;10.70;99.90;;;;;;5090631;28;20201;-71
2021/10/28 00:39:21;;;;;;;11.03;6.93;;;10.60;99.90;;;;;;5090165;28;20216;-70
2021/10/28 00:41:49;;;;;;;17.83;7.90;;;10.60;99.90;;;;;;5090022;28;20744;-69
2021/10/28 00:44:16;;;;;;;8.83;6.77;;;10.60;99.90;;;;;;5090028;28;20630;-69
2021/10/28 00:46:44;;;;;;;9.27;7.20;;;10.60;99.90;;;;;;5090431;28;20263;-69
2021/10/28 00:49:12;;;;;;;7.87;6.03;;;10.50;99.90;;;;;;5089759;28;20278;-70
2021/10/28 00:51:42;;;;;;;12.33;6.93;;;10.50;99.90;;;;;;5090160;28;20205;-71
2021/10/28 00:54:12;;;;;;;9.50;7.13;;;10.50;99.90;;;;;;5089677;28;20228;-71
2021/10/28 00:56:42;;;;;;;9.33;6.83;;;10.50;99.90;;;;;;5090512;28;20209;-71
2021/10/28 00:59:09;;;;;;;9.93;6.93;;;10.50;99.90;;;;;;5089848;28;20295;-69
2021/10/28 01:01:36;;;;;;;9.87;8.57;;;10.50;99.90;;;;;;5090428;28;20205;-70
2021/10/28 01:04:04;;;;;;;8.70;6.37;;;10.50;99.90;;;;;;5089905;28;20237;-69
2021/10/28 01:06:32;;;;;;;9.60;5.80;;;10.50;99.90;;;;;;5089920;28;20251;-70
2021/10/28 01:09:00;;;;;;;8.37;7.33;;;10.40;99.90;;;;;;5089381;28;20233;-70
2021/10/28 01:11:28;;;;;;;7.00;6.30;;;10.40;99.90;;;;;;5090157;28;20262;-70
2021/10/28 01:13:57;;;;;;;9.07;7.05;;;10.40;99.90;;;;;;5091408;28;20201;-70
2021/10/28 01:16:24;;;;;;;9.13;7.67;;;10.30;99.90;;;;;;5094189;28;20217;-70
2021/10/28 01:18:51;;;;;;;14.10;7.20;;;10.30;99.90;;;;;;5093827;28;20209;-70
2021/10/28 01:21:19;;;;;;;12.40;7.60;;;10.30;99.90;;;;;;5092919;28;20205;-70
2021/10/28 01:23:47;;;;;;;11.70;7.17;;;10.30;99.90;;;;;;5094149;28;20213;-70
2021/10/28 01:26:16;;;;;;;10.30;6.90;;;10.30;99.90;;;;;;5093588;28;20202;-69
2021/10/28 01:28:52;;;;;;;8.90;7.20;;;10.20;99.90;;;;;;5093400;28;20711;-70
2021/10/28 01:31:21;;;;;;;12.17;8.57;;;10.20;99.90;;;;;;5093313;28;20265;-71
2021/10/28 01:33:49;;;;;;;12.87;8.17;;;10.20;99.90;;;;;;5093449;28;20284;-70
2021/10/28 01:36:17;;;;;;;7.23;6.37;;;10.30;99.90;;;;;;5093337;28;20217;-70
2021/10/28 01:38:46;;;;;;;10.10;7.30;;;10.30;99.90;;;;;;5093279;28;20209;-71
2021/10/28 01:41:13;;;;;;;12.27;8.00;;;10.30;99.90;;;;;;5093347;28;20214;-70
2021/10/28 01:43:40;;;;;;;12.60;8.07;;;10.20;99.90;;;;;;5093429;28;20326;-72
2021/10/28 01:46:07;;;;;;;7.90;6.70;;;10.20;99.90;;;;;;5092891;28;20213;-72
2021/10/28 01:48:36;;;;;;;8.23;7.03;;;10.20;99.90;;;;;;5092971;28;20316;-73
2021/10/28 01:51:03;;;;;;;9.13;8.20;;;10.30;99.90;;;;;;5092717;28;20296;-72
2021/10/28 01:53:30;;;;;;;10.17;7.57;;;10.20;99.90;;;;;;5092373;28;20273;-71
2021/10/28 01:55:59;;;;;;;9.83;8.33;;;10.20;99.90;;;;;;5071146;28;20256;-72
2021/10/28 01:58:26;;;;;;;9.33;8.33;;;10.20;99.90;;;;;;5072838;28;20415;-70
2021/10/28 02:00:53;;;;;;;10.20;8.30;;;10.10;99.90;;;;;;5073216;28;20206;-70
2021/10/28 02:03:20;;;;;;;8.17;7.37;;;10.20;99.90;;;;;;5072239;28;20202;-70
2021/10/28 02:05:49;;;;;;;11.53;8.83;;;10.10;99.90;;;;;;5072568;28;20673;-71
2021/10/28 02:08:16;;;;;;;10.60;8.33;;;10.10;99.90;;;;;;5072189;28;20241;-69
2021/10/28 02:10:44;;;;;;;11.90;9.30;;;10.10;99.90;;;;;;5072776;28;20252;-69
2021/10/28 02:13:13;;;;;;;12.93;11.27;;;10.10;99.90;;;;;;5072089;28;20206;-71
2021/10/28 02:15:41;;;;;;;18.23;15.80;;;10.10;99.90;;;;;;5072550;28;20206;-70
2021/10/28 02:18:09;;;;;;;22.80;14.37;;;10.00;99.90;;;;;;5071702;28;20669;-69
2021/10/28 02:20:38;;;;;;;13.67;12.00;;;10.00;99.90;;;;;;5072597;28;20297;-71
2021/10/28 02:23:05;;;;;;;13.57;10.83;;;10.00;99.90;;;;;;5071914;28;20572;-70
2021/10/28 02:25:32;;;;;;;12.60;10.77;;;10.10;99.90;;;;;;5072446;28;20202;-69
2021/10/28 02:27:59;;;;;;;16.50;12.23;;;10.00;99.90;;;;;;5071875;28;20221;-69
2021/10/28 02:30:28;;;;;;;16.03;10.93;;;10.10;99.90;;;;;;5071933;28;20287;-70
2021/10/28 02:32:55;;;;;;;11.77;10.57;;;10.10;99.90;;;;;;5072242;28;20206;-69
2021/10/28 02:35:22;;;;;;;11.47;10.03;;;10.10;99.90;;;;;;5071910;28;20206;-69
2021/10/28 02:37:49;;;;;;;12.20;9.50;;;10.10;99.90;;;;;;5072309;28;20202;-71
2021/10/28 02:40:16;;;;;;;18.10;11.20;;;10.20;99.90;;;;;;5071782;28;20477;-70
2021/10/28 02:42:43;;;;;;;13.27;10.70;;;10.10;99.90;;;;;;5071996;28;20256;-70
2021/10/28 02:45:11;;;;;;;12.23;10.73;;;10.00;99.90;;;;;;5071317;28;20206;-69
2021/10/28 02:47:40;;;;;;;12.23;10.23;;;10.00;99.90;;;;;;5071975;28;20209;-70
2021/10/28 02:50:08;;;;;;;11.37;10.10;;;10.00;99.90;;;;;;5071712;28;20238;-69
2021/10/28 02:52:35;;;;;;;13.17;9.90;;;10.00;99.90;;;;;;5071776;28;20198;-70
2021/10/28 02:55:04;;;;;;;13.07;10.60;;;10.00;99.90;;;;;;5071354;28;20263;-70
2021/10/28 02:57:30;;;;;;;13.20;11.60;;;10.00;99.90;;;;;;5071801;28;20282;-69
2021/10/28 02:59:57;;;;;;;13.57;11.80;;;9.90;99.90;;;;;;5072007;28;20209;-70
2021/10/28 03:02:25;;;;;;;16.73;11.90;;;9.80;99.90;;;;;;5071583;28;20263;-71
2021/10/28 03:04:53;;;;;;;17.27;15.47;;;9.90;99.90;;;;;;5071985;28;20707;-71
2021/10/28 03:07:20;;;;;;;18.33;15.63;;;9.80;99.90;;;;;;5071161;28;20214;-71
2021/10/28 03:09:47;;;;;;;19.20;14.77;;;9.70;99.90;;;;;;5071846;28;20646;-71
2021/10/28 03:12:14;;;;;;;17.63;14.73;;;9.70;99.90;;;;;;5071012;28;20665;-69
2021/10/28 03:14:45;;;;;;;17.07;14.20;;;9.60;99.90;;;;;;5071360;28;20653;-71
2021/10/28 03:17:26;;;;;;;17.67;13.60;;;9.60;99.90;;;;;;5070782;28;20206;-70
2021/10/28 03:25:38;;;;;;;18.73;13.30;;;9.50;99.90;;;;;;5070853;28;20205;-69
2021/10/28 03:28:06;;;;;;;17.77;13.93;;;9.50;99.90;;;;;;5070452;28;20699;-69
2021/10/28 03:30:33;;;;;;;19.60;14.37;;;9.50;99.90;;;;;;5070995;28;20291;-72
2021/10/28 03:33:02;;;;;;;16.47;14.17;;;9.50;99.90;;;;;;5070389;28;20661;-71
2021/10/28 03:35:31;;;;;;;15.73;12.33;;;9.50;99.90;;;;;;5071361;28;20198;-71
2021/10/28 03:38:02;;;;;;;13.43;12.03;;;9.50;99.90;;;;;;5070730;28;20206;-71
2021/10/28 03:40:51;;;;;;;14.63;12.13;;;9.50;99.90;;;;;;5057607;28;20213;-69
2021/10/28 03:49:23;;;;;;;12.00;10.70;;;9.50;99.90;;;;;;5050184;28;20208;-72
2021/10/28 04:17:12;;;;;;;12.73;9.00;;;10.30;99.90;;;;;;5069586;28;20285;-69
2021/10/28 04:19:51;;;;;;;14.03;9.57;;;10.40;99.90;;;;;;5070273;28;20285;-69
2021/10/28 04:30:51;;;;;;;15.13;9.93;;;10.50;99.90;;;;;;5072992;28;20260;-69
2021/10/28 04:33:18;;;;;;;11.90;10.10;;;10.70;99.90;;;;;;5078952;28;20207;-69
2021/10/28 04:35:45;;;;;;;14.27;9.73;;;10.70;99.90;;;;;;5072746;28;20206;-69
2021/10/28 04:38:14;;;;;;;19.83;10.80;;;11.20;99.90;;;;;;5081329;28;20672;-69
2021/10/28 04:40:42;;;;;;;17.33;11.87;;;11.20;99.90;;;;;;5079885;28;20290;-69
2021/10/28 04:43:09;;;;;;;12.07;10.47;;;11.40;99.90;;;;;;5082995;28;20733;-70
2021/10/28 04:45:36;;;;;;;14.10;10.33;;;11.50;99.90;;;;;;5080444;28;20280;-69
2021/10/28 04:48:04;;;;;;;16.90;10.87;;;11.60;99.90;;;;;;5085497;28;20228;-70
2021/10/28 04:50:31;;;;;;;23.60;11.57;;;11.60;99.90;;;;;;5085472;28;20238;-70
2021/10/28 04:52:58;;;;;;;12.57;9.50;;;11.60;99.90;;;;;;5091064;28;20209;-70
2021/10/28 04:55:25;;;;;;;14.53;11.40;;;11.70;99.90;;;;;;5088601;28;20197;-70
2021/10/28 04:57:53;;;;;;;12.93;10.27;;;11.60;99.90;;;;;;5091979;28;20209;-69
2021/10/28 05:00:20;;;;;;;13.20;9.70;;;11.60;99.90;;;;;;5089631;28;20209;-70
2021/10/28 05:02:47;;;;;;;15.97;10.23;;;11.70;99.90;;;;;;5063601;28;20260;-69
2021/10/28 05:05:14;;;;;;;21.70;10.37;;;11.80;99.90;;;;;;5074146;28;20206;-70
2021/10/28 05:07:41;;;;;;;14.40;11.10;;;11.80;99.90;;;;;;5075157;28;20197;-70
2021/10/28 05:10:09;;;;;;;13.70;9.20;;;11.90;99.90;;;;;;5074056;28;20615;-71
2021/10/28 05:12:36;;;;;;;11.77;9.53;;;12.10;99.90;;;;;;5076154;28;20253;-70
2021/10/28 05:15:05;;;;;;;14.93;9.27;;;12.20;99.90;;;;;;5075623;28;20206;-70
2021/10/28 05:17:32;;;;;;;11.67;9.63;;;12.30;99.90;;;;;;5078113;28;20206;-71
2021/10/28 05:19:59;;;;;;;11.83;8.37;;;12.20;99.90;;;;;;5076434;28;20762;-70
2021/10/28 05:22:26;;;;;;;10.93;8.93;;;12.10;99.90;;;;;;5078397;28;20272;-70
2021/10/28 05:24:53;;;;;;;11.73;8.07;;;11.90;99.90;;;;;;5079276;28;20639;-69
2021/10/28 05:27:20;;;;;;;16.48;10.02;;;12.10;99.90;;;;;;5077574;28;20275;-73
2021/10/28 05:29:47;;;;;;;16.95;10.40;;;12.20;99.90;;;;;;5081978;28;20233;-71
2021/10/28 05:32:15;;;;;;;12.00;8.53;;;12.20;99.90;;;;;;5074313;28;20263;-71
2021/10/28 05:34:44;;;;;;;11.70;8.47;;;12.30;99.90;;;;;;5076469;28;20205;-71
2021/10/28 05:37:11;;;;;;;10.90;9.30;;;12.50;99.90;;;;;;5077306;28;20252;-70
2021/10/28 05:39:38;;;;;;;13.83;9.63;;;12.40;99.90;;;;;;5072481;28;20205;-71
2021/10/28 05:42:05;;;;;;;12.23;9.87;;;12.20;99.90;;;;;;5079714;28;20685;-71
2021/10/28 05:44:32;;;;;;;14.20;9.30;;;12.40;99.90;;;;;;5086126;28;20212;-70
2021/10/28 05:47:00;;;;;;;16.20;10.13;;;12.40;99.90;;;;;;5082366;28;20665;-70
2021/10/28 05:49:31;;;;;;;13.70;8.80;;;12.20;99.90;;;;;;5079466;28;20701;-69
2021/10/28 05:51:58;;;;;;;14.43;10.05;;;12.50;99.90;;;;;;5079258;28;20216;-70
2021/10/28 05:54:25;;;;;;;12.60;8.77;;;12.50;99.90;;;;;;5075363;28;20201;-70
2021/10/28 05:56:52;;;;;;;14.20;9.43;;;12.30;99.90;;;;;;5087192;28;20209;-70
2021/10/28 05:59:19;;;;;;;12.07;9.10;;;12.30;99.90;;;;;;5086141;28;21019;-70
2021/10/28 06:01:46;;;;;;;13.25;9.70;;;12.30;99.90;;;;;;5080906;28;20774;-70
2021/10/28 06:04:13;;;;;;;11.33;9.80;;;12.30;99.90;;;;;;5072168;28;20566;-70
2021/10/28 06:06:41;;;;;;;11.43;9.82;;;12.50;99.90;;;;;;5073783;28;20210;-71
2021/10/28 06:09:08;;;;;;;14.43;9.88;;;12.40;99.90;;;;;;5075137;28;20242;-71
2021/10/28 06:11:35;;;;;;;12.93;9.10;;;12.20;99.90;;;;;;5074407;28;20233;-70
2021/10/28 06:14:03;;;;;;;11.25;9.55;;;12.20;99.90;;;;;;5072191;28;20255;-71
2021/10/28 06:16:32;;;;;;;12.80;9.50;;;12.40;99.90;;;;;;5072353;28;20199;-71
2021/10/28 06:18:59;;;;;;;13.33;9.03;;;12.30;99.90;;;;;;5071820;28;20234;-68
2021/10/28 06:21:27;;;;;;;11.70;9.77;;;12.10;99.90;;;;;;5072072;28;20210;-69
2021/10/28 06:23:55;;;;;;;15.02;9.63;;;12.20;99.90;;;;;;5071727;28;20742;-69
2021/10/28 06:26:22;;;;;;;15.37;10.37;;;12.30;99.90;;;;;;5071795;28;20203;-69
2021/10/28 06:28:49;;;;;;;15.88;10.73;;;12.30;99.90;;;;;;5072213;28;20726;-69
2021/10/28 06:31:16;;;;;;;14.18;10.38;;;12.30;99.90;;;;;;5071759;28;21036;-68
2021/10/28 06:33:51;;;;;;;15.27;10.77;;;12.30;99.90;;;;;;5070558;28;20293;-68
2021/10/28 06:36:23;;;;;;;11.20;8.57;;;12.40;99.90;;;;;;5071788;28;20212;-68
2021/10/28 06:38:50;;;;;;;12.95;9.50;;;12.40;99.90;;;;;;5072118;28;20260;-68
2021/10/28 06:41:19;;;;;;;13.45;10.05;;;12.30;99.90;;;;;;5070438;28;20206;-68
2021/10/28 06:43:46;;;;;;;17.65;11.52;;;12.20;99.90;;;;;;5066800;28;21108;-68
2021/10/28 06:46:13;;;;;;;12.48;9.05;;;12.30;99.90;;;;;;5065276;28;20206;-68
2021/10/28 06:48:40;;;;;;;13.02;9.30;;;12.50;99.90;;;;;;5071856;28;20206;-68
2021/10/28 06:51:07;;;;;;;11.82;9.45;;;12.60;99.90;;;;;;5071294;28;20763;-68
2021/10/28 06:53:42;;;;;;;16.30;11.05;;;12.50;99.90;;;;;;5068808;28;20206;-68
2021/10/28 06:56:33;;;;;;;15.18;11.45;;;12.50;99.90;;;;;;5069860;28;20263;-68
2021/10/28 07:04:29;;;;;;;13.52;9.65;;;12.70;99.90;;;;;;5065624;28;20324;-68
2021/10/28 07:06:56;;;;;;;17.80;10.33;;;12.90;99.90;;;;;;5069950;28;20206;-68
2021/10/28 07:09:29;;;;;;;13.18;9.60;;;12.90;99.90;;;;;;5071349;28;20210;-68
2021/10/28 07:12:06;;;;;;;18.45;9.35;;;13.00;99.90;;;;;;5070532;28;20704;-69
2021/10/28 07:14:35;;;;;;;8.82;7.13;;;13.00;99.90;;;;;;5068882;28;20202;-68
2021/10/28 07:17:10;;;;;;;10.80;8.93;;;13.20;99.90;;;;;;5070215;28;20205;-69
2021/10/28 07:22:29;;;;;;;10.50;7.78;;;13.20;99.90;;;;;;5072890;28;20315;-68
2021/10/28 07:25:04;;;;;;;14.25;7.80;;;13.50;99.90;;;;;;5079946;28;20241;-68
2021/10/28 07:27:48;;;;;;;10.75;7.82;;;13.70;99.90;;;;;;5075821;28;20300;-68
2021/10/28 07:30:31;;;;;;;9.15;7.15;;;13.70;99.90;;;;;;5069165;28;20214;-68
2021/10/28 07:33:14;;;;;;;8.85;7.25;;;13.80;99.90;;;;;;5071134;28;20209;-68
2021/10/28 07:36:12;;;;;;;10.63;6.95;;;13.90;99.90;;;;;;5068503;28;20206;-68
2021/10/28 08:13:26;;;;;;;8.38;6.55;;;14.80;99.90;;;;;;5066698;28;20217;-69
2021/10/28 08:15:04;;;;;;;7.78;5.32;;;15.00;99.90;;;;;;5066741;28;20708;-68
2021/10/28 08:20:41;;;;;;;7.72;5.60;;;15.10;99.90;;;;;;5049407;28;20643;-68
2021/10/28 08:23:13;;;;;;;8.15;5.45;;;15.10;99.90;;;;;;5065238;28;20205;-68
2021/10/28 08:28:45;;;;;;;8.48;7.05;;;15.40;99.90;;;;;;5058969;28;20277;-68
2021/10/28 08:31:16;;;;;;;7.30;4.93;;;15.30;99.90;;;;;;5053841;28;20277;-68
2021/10/28 08:33:45;;;;;;;6.53;5.85;;;15.30;99.90;;;;;;5064246;28;20211;-69
2021/10/28 08:36:14;;;;;;;9.07;5.15;;;15.40;99.90;;;;;;5056395;28;20211;-68
2021/10/28 08:38:42;;;;;;;5.45;4.95;;;15.40;99.90;;;;;;5066352;28;20210;-70
2021/10/28 08:41:11;;;;;;;6.97;5.40;;;15.40;99.90;;;;;;5065907;28;20264;-68
2021/10/28 08:43:41;;;;;;;8.88;6.45;;;15.50;99.90;;;;;;5065747;28;20600;-68
2021/10/28 08:46:10;;;;;;;8.65;5.25;;;15.60;99.90;;;;;;5065186;28;20289;-67
2021/10/28 08:48:39;;;;;;;7.57;6.18;;;15.70;99.90;;;;;;5062823;28;20762;-68
2021/10/28 08:51:13;;;;;;;11.32;4.80;;;15.80;99.90;;;;;;5056081;28;20293;-68
2021/10/28 08:56:44;;;;;;;6.60;5.20;;;15.90;99.90;;;;;;5045886;28;20209;-70
2021/10/28 08:59:31;;;;;;;7.65;5.43;;;16.00;99.90;;;;;;5055907;28;20645;-71
2021/10/28 09:24:46;;;;;;;4.38;3.97;;;17.00;99.90;;;;;;5052685;28;20751;-68
2021/10/28 09:27:15;;;;;;;8.55;5.15;;;17.10;99.90;;;;;;5052818;28;20298;-68
2021/10/28 09:29:49;;;;;;;5.20;4.68;;;17.40;99.90;;;;;;5052793;28;20210;-69
2021/10/28 09:32:28;;;;;;;7.68;5.30;;;19.00;99.90;;;;;;5052718;28;20682;-68
2021/10/28 09:43:44;;;;;;;7.72;4.05;;;21.30;99.90;;;;;;5052256;28;20210;-68
2021/10/28 09:46:35;;;;;;;5.60;4.03;;;20.60;99.90;;;;;;5052094;28;20662;-68
2021/10/28 09:51:57;;;;;;;4.35;3.97;;;21.80;99.90;;;;;;5052299;28;20210;-71
2021/10/28 09:54:43;;;;;;;6.85;4.28;;;20.80;99.90;;;;;;5052893;28;20198;-68
2021/10/28 10:00:17;;;;;;;5.15;4.45;;;21.60;99.90;;;;;;5015454;28;20349;-68
2021/10/28 10:02:50;;;;;;;4.75;3.85;;;22.40;99.90;;;;;;5052212;28;20259;-68
2021/10/28 10:05:20;;;;;;;5.38;4.88;;;23.70;99.90;;;;;;5051971;28;20203;-68
2021/10/28 10:07:47;;;;;;;5.43;4.35;;;24.40;99.90;;;;;;5051949;28;20650;-68
2021/10/28 10:10:15;;;;;;;8.18;4.40;;;22.60;99.90;;;;;;5051890;28;20580;-69
2021/10/28 10:12:44;;;;;;;7.30;4.15;;;19.80;99.90;;;;;;5051680;28;20669;-68
2021/10/28 10:15:12;;;;;;;6.25;4.00;;;18.50;99.90;;;;;;5051793;28;20298;-68
2021/10/28 10:17:41;;;;;;;5.75;4.63;;;18.50;99.90;;;;;;5051925;28;20281;-68
2021/10/28 10:20:11;;;;;;;6.00;3.70;;;18.40;99.90;;;;;;5051867;28;20238;-68
2021/10/28 10:22:47;;;;;;;5.13;4.72;;;18.30;99.90;;;;;;5051513;28;20210;-68
2021/10/28 10:25:38;;;;;;;5.45;3.88;;;18.30;99.90;;;;;;5051522;28;20209;-68
2021/10/28 11:25:35;;;;;;;6.53;3.70;;;19.30;99.90;;;;;;5017268;28;20214;-69
2021/10/28 12:21:51;;;;;;;8.43;3.78;;;19.70;99.90;;;;;;5050281;28;20242;-68
2021/10/28 12:44:14;;;;;;;4.10;3.70;;;20.00;99.90;;;;;;5050399;28;20234;-68
2021/10/28 12:47:19;;;;;;;9.35;3.83;;;19.70;99.90;;;;;;5052167;28;20214;-68
2021/10/28 12:50:19;;;;;;;5.10;3.33;;;19.80;99.90;;;;;;5053957;28;20293;-67
2021/10/28 12:53:11;;;;;;;6.53;3.38;;;20.10;99.90;;;;;;5053731;28;20206;-67
2021/10/28 13:07:10;;;;;;;5.80;3.20;;;20.00;99.90;;;;;;5053642;28;20201;-67
2021/10/28 13:56:24;;;;;;;4.45;3.25;;;20.20;99.90;;;;;;5051807;28;20298;-67
2021/10/28 14:21:24;;;;;;;4.90;3.28;;;20.20;99.90;;;;;;5051492;28;20223;-67
2021/10/28 14:24:06;;;;;;;4.57;3.45;;;20.10;99.90;;;;;;5051658;28;20219;-68
2021/10/28 14:29:53;;;;;;;3.85;3.17;;;20.20;99.90;;;;;;5051456;28;20715;-67
2021/10/28 14:38:19;;;;;;;9.77;3.78;;;20.10;99.90;;;;;;5050704;28;20203;-67
2021/10/28 15:30:29;;;;;;;5.40;3.20;;;19.20;99.90;;;;;;4982592;28;20239;-67
2021/10/28 15:35:44;;;;;;;4.65;2.83;;;19.10;99.90;;;;;;5050139;28;20214;-67
2021/10/28 15:38:23;;;;;;;6.90;3.20;;;19.10;99.90;;;;;;5050010;28;20213;-68
2021/10/28 15:47:14;;;;;;;4.65;3.35;;;19.00;99.90;;;;;;5047424;28;20198;-67
2021/10/28 15:58:18;;;;;;;4.97;3.22;;;18.80;99.90;;;;;;5005780;28;20557;-68
2021/10/28 16:01:13;;;;;;;4.90;3.70;;;18.70;99.90;;;;;;5007255;28;20240;-68
2021/10/28 16:23:11;;;;;;;4.18;3.00;;;18.10;99.90;;;;;;5051600;28;20273;-68
2021/10/28 16:25:38;;;;;;;4.97;2.95;;;18.10;99.90;;;;;;5053804;28;20238;-68
2021/10/28 16:28:05;;;;;;;3.78;2.72;;;18.10;99.90;;;;;;5053362;28;20677;-68
2021/10/28 16:30:32;;;;;;;9.80;3.70;;;18.00;99.90;;;;;;5053628;28;20674;-67
2021/10/28 16:33:00;;;;;;;3.22;2.78;;;18.10;99.90;;;;;;5052524;28;20210;-68
2021/10/28 16:35:27;;;;;;;4.88;3.33;;;17.90;99.90;;;;;;5053653;28;20232;-67
2021/10/28 16:37:55;;;;;;;6.82;3.15;;;17.90;99.90;;;;;;5051341;28;20203;-68
2021/10/28 16:40:23;;;;;;;4.13;2.63;;;17.80;99.90;;;;;;5053518;28;20598;-68
2021/10/28 16:42:50;;;;;;;5.03;3.20;;;17.80;99.90;;;;;;5053625;28;20206;-67
2021/10/28 16:45:17;;;;;;;7.80;3.05;;;17.80;99.90;;;;;;5052913;28;20222;-68
2021/10/28 16:47:44;;;;;;;3.47;2.60;;;17.80;99.90;;;;;;5053050;28;20211;-68
2021/10/28 16:50:12;;;;;;;4.68;2.72;;;17.70;99.90;;;;;;5052758;28;20214;-68
2021/10/28 16:52:39;;;;;;;5.00;3.05;;;17.70;99.90;;;;;;5053682;28;20207;-69
2021/10/28 16:55:06;;;;;;;6.38;3.80;;;17.60;99.90;;;;;;5052827;28;20253;-69
2021/10/28 16:57:35;;;;;;;5.80;3.45;;;17.50;99.90;;;;;;5052873;28;20288;-68
2021/10/28 17:00:03;;;;;;;8.38;4.38;;;17.40;99.90;;;;;;5046163;28;20206;-70
2021/10/28 17:02:30;;;;;;;5.88;3.42;;;17.40;99.90;;;;;;5048783;28;20736;-68
2021/10/28 17:04:57;;;;;;;4.38;3.25;;;17.30;99.90;;;;;;5051061;28;20211;-68
2021/10/28 17:07:25;;;;;;;3.40;2.75;;;17.20;99.90;;;;;;5053527;28;20218;-69
2021/10/28 17:09:53;;;;;;;4.07;3.63;;;17.30;99.90;;;;;;5041345;28;20200;-70
2021/10/28 17:12:21;;;;;;;8.15;3.67;;;17.20;99.90;;;;;;5047075;28;20209;-69
2021/10/28 17:14:49;;;;;;;8.55;3.40;;;17.10;99.90;;;;;;5045363;28;20210;-69
2021/10/28 17:17:17;;;;;;;7.60;3.40;;;17.10;99.90;;;;;;5044352;28;20241;-68
2021/10/28 17:19:46;;;;;;;9.27;5.50;;;17.10;99.90;;;;;;5051889;28;20203;-71
2021/10/28 17:22:13;;;;;;;6.50;3.33;;;17.00;99.90;;;;;;5051277;28;20234;-69
2021/10/28 17:24:45;;;;;;;6.28;3.42;;;17.10;99.90;;;;;;5050167;28;20298;-68
2021/10/28 17:27:13;;;;;;;4.10;3.42;;;17.10;99.90;;;;;;5052130;28;20218;-69
2021/10/28 17:29:41;;;;;;;6.03;3.65;;;17.00;99.90;;;;;;5052777;28;20207;-69
2021/10/28 17:32:10;;;;;;;12.77;3.35;;;16.90;99.90;;;;;;5045226;28;20215;-68
2021/10/28 17:34:37;;;;;;;4.10;3.60;;;16.90;99.90;;;;;;5047445;28;20362;-68
2021/10/28 17:37:05;;;;;;;3.92;3.40;;;16.80;99.90;;;;;;5038928;28;20225;-68
2021/10/28 17:39:33;;;;;;;3.05;2.75;;;16.80;99.90;;;;;;5047445;28;20261;-69
2021/10/28 17:42:01;;;;;;;6.47;3.95;;;16.60;99.90;;;;;;5051986;28;20238;-68
2021/10/28 17:44:37;;;;;;;5.07;3.72;;;16.60;99.90;;;;;;5051530;28;20306;-70
2021/10/28 17:47:04;;;;;;;4.07;2.92;;;16.60;99.90;;;;;;5050200;28;20289;-68
2021/10/28 17:49:32;;;;;;;4.32;3.38;;;16.70;99.90;;;;;;5043457;28;20276;-71
2021/10/28 17:51:59;;;;;;;4.68;3.30;;;16.60;99.90;;;;;;5037541;28;20210;-68
2021/10/28 17:54:26;;;;;;;5.40;3.20;;;16.50;99.90;;;;;;5039729;28;20290;-68
2021/10/28 17:56:54;;;;;;;5.82;3.25;;;16.60;99.90;;;;;;5038800;28;20204;-67
2021/10/28 17:59:22;;;;;;;4.28;2.75;;;16.50;99.90;;;;;;5040485;28;20242;-68
2021/10/28 18:01:49;;;;;;;7.30;3.63;;;16.50;99.90;;;;;;5039850;28;20254;-69
2021/10/28 18:04:17;;;;;;;4.72;3.25;;;16.40;99.90;;;;;;5040716;28;20296;-68
2021/10/28 18:06:45;;;;;;;4.45;3.85;;;16.40;99.90;;;;;;5050102;28;20214;-69
2021/10/28 18:09:12;;;;;;;5.03;3.22;;;16.40;99.90;;;;;;5051436;28;20264;-68
2021/10/28 18:11:39;;;;;;;3.88;3.15;;;16.30;99.90;;;;;;5052238;28;20214;-68
2021/10/28 18:14:11;;;;;;;5.28;3.38;;;16.40;99.90;;;;;;5044139;28;20265;-68
2021/10/28 18:16:39;;;;;;;5.30;2.70;;;16.40;99.90;;;;;;5042752;28;20615;-68
2021/10/28 18:19:08;;;;;;;6.72;4.18;;;16.40;99.90;;;;;;5050387;28;20213;-68
2021/10/28 18:21:37;;;;;;;3.83;3.38;;;16.30;99.90;;;;;;5051116;28;20709;-69
2021/10/28 18:24:06;;;;;;;6.60;2.90;;;16.20;99.90;;;;;;5042738;28;20218;-68
2021/10/28 18:26:33;;;;;;;4.53;2.80;;;16.30;99.90;;;;;;5041857;28;20731;-69
2021/10/28 18:29:00;;;;;;;4.82;2.83;;;16.30;99.90;;;;;;5051591;28;20207;-69
2021/10/28 18:31:28;;;;;;;7.22;3.05;;;16.20;99.90;;;;;;5050256;28;20211;-69
2021/10/28 18:33:57;;;;;;;4.68;2.50;;;16.10;99.90;;;;;;5048433;28;20599;-69
2021/10/28 18:36:25;;;;;;;7.22;3.00;;;16.20;99.90;;;;;;5041516;28;20302;-69
2021/10/28 18:38:52;;;;;;;5.50;2.42;;;16.10;99.90;;;;;;5051514;28;20207;-70
2021/10/28 18:41:22;;;;;;;5.80;3.20;;;16.10;99.90;;;;;;5050961;28;20782;-69
2021/10/28 18:43:49;;;;;;;4.53;2.80;;;16.10;99.90;;;;;;5050649;28;20207;-69
2021/10/28 18:46:20;;;;;;;3.55;2.60;;;16.10;99.90;;;;;;5048641;28;20688;-68
2021/10/28 18:48:47;;;;;;;2.90;2.40;;;16.10;99.90;;;;;;5051480;28;20203;-69
2021/10/28 18:51:15;;;;;;;3.33;3.03;;;16.10;99.90;;;;;;5050483;28;20203;-69
2021/10/28 18:53:44;;;;;;;3.67;3.10;;;16.10;99.90;;;;;;5050390;28;20218;-69
2021/10/28 18:56:12;;;;;;;3.35;3.05;;;16.10;99.90;;;;;;5041852;28;20211;-69
2021/10/28 18:58:42;;;;;;;5.18;2.90;;;16.00;99.90;;;;;;5048596;28;20210;-69
2021/10/28 19:01:10;;;;;;;3.15;2.85;;;16.00;99.90;;;;;;5050188;28;20619;-69
2021/10/28 19:03:39;;;;;;;5.25;2.75;;;16.00;99.90;;;;;;5051008;28;20202;-69
2021/10/28 19:06:06;;;;;;;4.45;3.50;;;16.00;99.90;;;;;;5048284;28;20210;-70
2021/10/28 19:08:36;;;;;;;5.38;2.85;;;15.90;99.90;;;;;;5050132;28;20198;-68
2021/10/28 19:11:03;;;;;;;4.88;3.70;;;15.90;99.90;;;;;;5050746;28;20214;-69
2021/10/28 19:13:30;;;;;;;5.70;3.42;;;15.90;99.90;;;;;;5051066;28;20213;-68
2021/10/28 19:15:59;;;;;;;4.68;2.92;;;15.90;99.90;;;;;;5049709;28;20206;-69
2021/10/28 19:18:26;;;;;;;7.20;4.07;;;15.90;99.90;;;;;;5051233;28;20202;-68
2021/10/28 19:20:53;;;;;;;8.63;3.65;;;15.90;99.90;;;;;;5051195;28;20650;-70
2021/10/28 19:23:20;;;;;;;4.85;3.78;;;15.90;99.90;;;;;;5050266;28;20199;-68
2021/10/28 19:25:48;;;;;;;4.70;3.42;;;15.80;99.90;;;;;;5049322;28;20207;-68
2021/10/28 19:28:16;;;;;;;4.57;2.63;;;15.90;99.90;;;;;;5049989;28;20582;-67
2021/10/28 19:30:47;;;;;;;6.20;3.55;;;16.00;99.90;;;;;;5050689;28;20210;-68
2021/10/28 19:33:18;;;;;;;7.07;3.70;;;15.80;99.90;;;;;;5050148;28;20214;-67
2021/10/28 19:35:49;;;;;;;5.90;4.05;;;15.80;99.90;;;;;;5048912;28;20207;-67
2021/10/28 19:38:28;;;;;;;6.03;3.92;;;15.80;99.90;;;;;;5041224;28;20690;-67
2021/10/28 19:41:06;;;;;;;6.93;3.97;;;15.70;99.90;;;;;;5036759;28;20253;-67
2021/10/28 19:46:19;;;;;;;4.90;3.53;;;15.80;99.90;;;;;;5042209;28;20273;-68
2021/10/28 19:48:47;;;;;;;6.90;3.22;;;15.80;99.90;;;;;;5048869;28;20210;-70
2021/10/28 19:51:15;;;;;;;7.55;3.65;;;15.90;99.90;;;;;;5050255;28;20215;-69
2021/10/28 19:53:45;;;;;;;6.10;3.45;;;15.90;99.90;;;;;;5050023;28;20202;-70
2021/10/28 19:56:13;;;;;;;5.75;2.85;;;15.80;99.90;;;;;;5037196;28;20203;-69
2021/10/28 19:58:43;;;;;;;9.30;3.58;;;15.80;99.90;;;;;;5036958;28;20207;-69
2021/10/28 20:01:20;;;;;;;4.47;3.40;;;15.80;99.90;;;;;;5037091;28;20238;-68
2021/10/28 20:04:09;;;;;;;8.57;3.40;;;15.80;99.90;;;;;;5038132;28;20218;-68
2021/10/28 20:06:46;;;;;;;5.50;3.20;;;15.70;99.90;;;;;;5036680;28;20597;-69
2021/10/28 20:14:58;;;;;;;6.07;3.22;;;15.70;99.90;;;;;;5037245;28;20315;-67
2021/10/28 20:20:14;;;;;;;3.78;3.15;;;15.80;99.90;;;;;;5037104;28;20198;-71
2021/10/28 20:22:43;;;;;;;9.70;4.60;;;15.70;99.90;;;;;;5039781;28;20726;-70
2021/10/28 20:25:13;;;;;;;7.60;4.72;;;15.70;99.90;;;;;;5036682;28;20207;-69
2021/10/28 20:27:40;;;;;;;5.07;3.75;;;15.70;99.90;;;;;;5046590;28;20629;-68
2021/10/28 20:30:10;;;;;;;9.05;3.90;;;15.60;99.90;;;;;;5049564;28;20210;-68
2021/10/28 20:32:37;;;;;;;4.10;3.58;;;15.60;99.90;;;;;;5048353;28;20297;-69
2021/10/28 20:35:11;;;;;;;4.85;3.70;;;15.70;99.90;;;;;;5042486;28;20253;-69
2021/10/28 20:37:42;;;;;;;5.47;3.33;;;15.70;99.90;;;;;;5049517;28;20203;-68
2021/10/28 20:40:12;;;;;;;4.53;2.95;;;15.60;99.90;;;;;;5048456;28;20199;-68